createdAt,value
2022-10-02T00:02:55.325Z,9.52
2022-10-02T00:09:54.533Z,7.45
2022-10-02T00:16:46.090Z,8.27
2022-10-02T00:23:39.787Z,11.73
2022-10-02T00:30:22.386Z,10.20
2022-10-02T00:37:31.729Z,6.85
2022-10-02T00:44:26.000Z,10.32
2022-10-02T00:51:20.277Z,7.97
2022-10-02T00:58:21.054Z,6.00
2022-10-02T01:05:07.582Z,8.90
2022-10-02T01:11:51.004Z,11.23
2022-10-02T01:18:33.554Z,11.45
2022-10-02T01:25:16.037Z,11.73
2022-10-02T01:31:58.407Z,9.40
2022-10-02T01:38:41.949Z,10.45
2022-10-02T01:45:39.351Z,8.32
2022-10-02T01:52:53.572Z,21.98
2022-10-02T01:59:35.995Z,18.83
2022-10-02T02:06:29.191Z,6.45
2022-10-02T02:13:51.039Z,8.88
2022-10-02T02:20:39.829Z,5.47
2022-10-02T02:27:26.459Z,9.88
2022-10-02T02:34:13.318Z,5.05
2022-10-02T02:41:03.121Z,8.25
2022-10-02T02:47:50.503Z,5.50
2022-10-02T02:54:42.660Z,6.53
2022-10-02T03:01:25.158Z,7.07
2022-10-02T03:08:31.487Z,7.38
2022-10-02T03:15:29.421Z,7.47
2022-10-02T03:22:36.290Z,7.72
2022-10-02T03:29:26.743Z,7.47
2022-10-02T03:36:11.869Z,7.43
2022-10-02T03:42:58.211Z,6.78
2022-10-02T03:49:40.820Z,5.38
2022-10-02T03:56:41.473Z,10.27
2022-10-02T04:03:27.951Z,13.63
2022-10-02T04:10:13.329Z,5.88
2022-10-02T04:17:09.904Z,8.73
2022-10-02T04:24:06.801Z,8.13
2022-10-02T04:30:53.194Z,6.80
2022-10-02T04:37:45.843Z,7.20
2022-10-02T04:44:30.610Z,9.85
2022-10-02T04:51:20.311Z,7.40
2022-10-02T04:58:24.797Z,7.30
2022-10-02T05:05:26.021Z,7.60
2022-10-02T05:12:32.147Z,8.38
2022-10-02T05:19:51.243Z,7.30
2022-10-02T05:26:46.415Z,7.40
2022-10-02T05:33:38.157Z,5.72
2022-10-02T05:40:28.095Z,14.73
2022-10-02T05:47:33.063Z,7.82
2022-10-02T05:54:52.479Z,5.70
2022-10-02T06:01:39.613Z,11.13
2022-10-02T06:08:36.774Z,5.07
2022-10-02T06:15:31.906Z,8.20
2022-10-02T06:22:21.478Z,10.38
2022-10-02T06:29:18.663Z,11.02
2022-10-02T06:36:48.443Z,7.55
2022-10-02T06:43:43.914Z,7.65
2022-10-02T06:50:56.392Z,9.45
2022-10-02T06:58:08.840Z,8.73
2022-10-02T07:05:17.974Z,6.75
2022-10-02T07:12:28.274Z,11.18
2022-10-02T07:19:31.717Z,5.70
2022-10-02T07:26:19.510Z,9.65
2022-10-02T07:33:21.011Z,8.88
2022-10-02T07:40:22.310Z,7.85
2022-10-02T07:47:28.627Z,11.52
2022-10-02T07:54:48.769Z,7.55
2022-10-02T08:01:36.393Z,11.75
2022-10-02T08:08:27.774Z,9.85
2022-10-02T08:15:17.641Z,8.60
2022-10-02T08:22:23.586Z,6.45
2022-10-02T08:29:31.062Z,6.03
2022-10-02T08:36:53.064Z,8.07
2022-10-02T08:43:56.870Z,11.10
2022-10-02T08:51:15.312Z,6.97
2022-10-02T08:58:35.344Z,11.32
2022-10-02T09:05:29.943Z,7.03
2022-10-02T09:12:37.754Z,9.02
2022-10-02T09:19:44.736Z,7.05
2022-10-02T09:26:34.594Z,6.05
2022-10-02T09:33:44.696Z,7.30
2022-10-02T09:41:01.342Z,6.95
2022-10-02T09:48:10.078Z,6.47
2022-10-02T09:55:23.325Z,5.45
2022-10-02T10:02:29.005Z,5.97
2022-10-02T10:09:40.371Z,5.65
2022-10-02T10:16:53.919Z,4.85
2022-10-02T10:23:51.095Z,4.22
2022-10-02T10:30:46.633Z,3.80
2022-10-02T10:38:26.802Z,4.93
2022-10-02T10:45:18.358Z,5.82
2022-10-02T10:52:03.781Z,3.85
2022-10-02T10:58:52.941Z,4.90
2022-10-02T11:06:03.532Z,3.10
2022-10-02T11:13:14.509Z,2.35
2022-10-02T11:20:40.307Z,2.00
2022-10-02T11:28:02.005Z,2.47
2022-10-02T11:35:07.749Z,3.35
2022-10-02T11:42:10.219Z,3.75
2022-10-02T11:49:22.836Z,3.92
2022-10-02T11:56:22.294Z,2.33
2022-10-02T12:03:36.385Z,2.00
2022-10-02T12:10:30.710Z,1.20
2022-10-02T12:17:34.855Z,2.63
2022-10-02T12:25:02.480Z,1.50
2022-10-02T12:32:01.974Z,1.60
2022-10-02T12:39:11.836Z,1.30
2022-10-02T12:46:22.165Z,3.58
2022-10-02T12:53:36.048Z,1.77
2022-10-02T13:00:21.451Z,1.20
2022-10-02T13:07:16.264Z,2.30
2022-10-02T13:14:28.271Z,2.42
2022-10-02T13:21:55.640Z,2.40
2022-10-02T13:29:19.708Z,1.65
2022-10-02T13:36:15.335Z,1.77
2022-10-02T13:43:17.655Z,1.38
2022-10-02T13:50:27.728Z,1.27
2022-10-02T13:57:18.975Z,1.30
2022-10-02T14:04:23.598Z,2.45
2022-10-02T14:11:43.527Z,1.50
2022-10-02T14:18:55.363Z,1.30
2022-10-02T14:26:06.193Z,2.25
2022-10-02T14:32:58.351Z,1.75
2022-10-02T14:39:42.381Z,1.90
2022-10-02T14:46:35.920Z,1.40
2022-10-02T14:53:44.933Z,1.40
2022-10-02T15:00:43.079Z,1.90
2022-10-02T15:07:28.232Z,2.28
2022-10-02T15:14:37.618Z,1.63
2022-10-02T15:21:48.508Z,2.25
2022-10-02T15:28:50.625Z,1.38
2022-10-02T15:36:08.228Z,1.58
2022-10-02T15:43:02.577Z,1.73
2022-10-02T15:50:05.725Z,2.00
2022-10-02T15:57:15.541Z,1.95
2022-10-02T16:04:44.007Z,1.80
2022-10-02T16:12:01.213Z,4.53
2022-10-02T16:19:40.171Z,3.47
2022-10-02T16:26:44.027Z,2.22
2022-10-02T16:33:57.903Z,4.80
2022-10-02T16:40:58.473Z,4.20
2022-10-02T16:48:00.486Z,3.70
2022-10-02T16:54:47.095Z,3.65
2022-10-02T17:01:53.313Z,3.30
2022-10-02T17:08:53.731Z,5.13
2022-10-02T17:15:49.455Z,5.53
2022-10-02T17:23:03.067Z,7.80
2022-10-02T17:29:56.819Z,8.05
2022-10-02T17:36:58.971Z,5.15
2022-10-02T17:44:02.589Z,5.20
2022-10-02T17:51:31.270Z,5.38
2022-10-02T17:58:44.008Z,5.05
2022-10-02T18:05:29.842Z,4.95
2022-10-02T18:12:18.504Z,3.50
2022-10-02T18:19:27.716Z,4.60
2022-10-02T18:26:31.401Z,5.85
2022-10-02T18:33:43.476Z,4.68
2022-10-02T18:40:30.322Z,8.35
2022-10-02T18:47:31.656Z,3.38
2022-10-02T18:54:34.326Z,3.15
2022-10-02T19:01:39.977Z,6.10
2022-10-02T19:09:00.059Z,5.53
2022-10-02T19:15:45.069Z,3.78
2022-10-02T19:22:38.291Z,3.28
2022-10-02T19:29:41.675Z,4.10
2022-10-02T19:36:26.656Z,5.20
2022-10-02T19:43:25.491Z,4.72
2022-10-02T19:50:24.295Z,7.10
2022-10-02T19:57:14.742Z,5.20
2022-10-02T20:04:02.630Z,6.10
2022-10-02T20:11:15.615Z,5.10
2022-10-02T20:17:58.236Z,11.07
2022-10-02T20:24:56.190Z,8.13
2022-10-02T20:31:49.005Z,7.15
2022-10-02T20:38:52.123Z,7.95
2022-10-02T20:45:46.958Z,8.43
2022-10-02T20:52:52.213Z,10.52
2022-10-02T21:00:09.170Z,9.60
2022-10-02T21:07:13.927Z,7.85
2022-10-02T21:14:25.207Z,7.82
2022-10-02T21:21:33.416Z,7.40
2022-10-02T21:28:22.271Z,6.57
2022-10-02T21:35:16.543Z,7.05
2022-10-02T21:42:15.688Z,6.32
2022-10-02T21:49:14.475Z,7.28
2022-10-02T21:56:08.737Z,7.50
2022-10-02T22:02:59.081Z,7.03
2022-10-02T22:09:50.525Z,7.13
2022-10-02T22:16:52.304Z,8.43
2022-10-02T22:23:59.613Z,5.97
2022-10-02T22:31:11.241Z,5.40
2022-10-02T22:38:18.975Z,7.22
2022-10-02T22:45:13.498Z,6.10
2022-10-02T22:52:25.180Z,6.20
2022-10-02T22:59:37.864Z,8.43
2022-10-02T23:06:31.376Z,5.20
2022-10-02T23:13:26.379Z,5.88
2022-10-02T23:20:39.468Z,5.40
2022-10-02T23:27:52.063Z,5.47
2022-10-02T23:34:44.994Z,5.40
2022-10-02T23:41:40.751Z,6.93
2022-10-02T23:48:23.854Z,7.82
2022-10-02T23:55:29.004Z,8.82
